sensor_id;sensor_type;location;lat;lon;timestamp;P1;durP1;ratioP1;P2;durP2;ratioP2
7621;SDS011;3852;52.284;8.032;2022-08-23T00:01:52;4.43;;;4.00;;
7621;SDS011;3852;52.284;8.032;2022-08-23T00:04:22;4.23;;;3.73;;
7621;SDS011;3852;52.284;8.032;2022-08-23T00:06:51;4.30;;;3.60;;
7621;SDS011;3852;52.284;8.032;2022-08-23T00:09:19;4.10;;;3.80;;
7621;SDS011;3852;52.284;8.032;2022-08-23T00:11:52;5.60;;;3.80;;
7621;SDS011;3852;52.284;8.032;2022-08-23T00:14:34;5.90;;;3.70;;
7621;SDS011;3852;52.284;8.032;2022-08-23T00:17:04;4.17;;;3.40;;
7621;SDS011;3852;52.284;8.032;2022-08-23T00:19:31;3.80;;;3.40;;
7621;SDS011;3852;52.284;8.032;2022-08-23T00:21:57;5.40;;;3.57;;
7621;SDS011;3852;52.284;8.032;2022-08-23T00:24:23;3.60;;;3.30;;
7621;SDS011;3852;52.284;8.032;2022-08-23T00:27:01;5.70;;;3.90;;
7621;SDS011;3852;52.284;8.032;2022-08-23T00:29:44;4.00;;;3.50;;
7621;SDS011;3852;52.284;8.032;2022-08-23T00:32:12;3.60;;;3.30;;
7621;SDS011;3852;52.284;8.032;2022-08-23T00:34:41;4.57;;;3.43;;
7621;SDS011;3852;52.284;8.032;2022-08-23T00:37:08;4.10;;;3.37;;
7621;SDS011;3852;52.284;8.032;2022-08-23T00:39:35;4.10;;;3.80;;
7621;SDS011;3852;52.284;8.032;2022-08-23T00:42:04;5.03;;;3.67;;
7621;SDS011;3852;52.284;8.032;2022-08-23T00:44:56;4.80;;;3.60;;
7621;SDS011;3852;52.284;8.032;2022-08-23T00:47:44;4.30;;;3.90;;
7621;SDS011;3852;52.284;8.032;2022-08-23T00:50:12;3.30;;;3.10;;
7621;SDS011;3852;52.284;8.032;2022-08-23T00:53:21;3.77;;;3.47;;
7621;SDS011;3852;52.284;8.032;2022-08-23T00:55:53;3.67;;;3.17;;
7621;SDS011;3852;52.284;8.032;2022-08-23T00:58:24;3.90;;;3.60;;
7621;SDS011;3852;52.284;8.032;2022-08-23T01:00:51;3.93;;;3.30;;
7621;SDS011;3852;52.284;8.032;2022-08-23T01:03:22;4.37;;;3.50;;
7621;SDS011;3852;52.284;8.032;2022-08-23T01:06:02;3.93;;;3.57;;
7621;SDS011;3852;52.284;8.032;2022-08-23T01:08:42;3.30;;;3.00;;
7621;SDS011;3852;52.284;8.032;2022-08-23T01:11:18;3.63;;;3.30;;
7621;SDS011;3852;52.284;8.032;2022-08-23T01:16:56;3.47;;;3.20;;
7621;SDS011;3852;52.284;8.032;2022-08-23T01:19:34;4.53;;;3.20;;
7621;SDS011;3852;52.284;8.032;2022-08-23T01:24:48;3.63;;;3.33;;
7621;SDS011;3852;52.284;8.032;2022-08-23T01:27:15;4.47;;;3.50;;
7621;SDS011;3852;52.284;8.032;2022-08-23T01:29:41;4.20;;;3.20;;
7621;SDS011;3852;52.284;8.032;2022-08-23T01:32:07;6.47;;;3.50;;
7621;SDS011;3852;52.284;8.032;2022-08-23T01:34:36;4.13;;;3.77;;
7621;SDS011;3852;52.284;8.032;2022-08-23T01:37:03;3.80;;;3.20;;
7621;SDS011;3852;52.284;8.032;2022-08-23T01:39:32;3.10;;;2.90;;
7621;SDS011;3852;52.284;8.032;2022-08-23T01:41:59;3.67;;;3.43;;
7621;SDS011;3852;52.284;8.032;2022-08-23T01:44:24;3.67;;;3.40;;
7621;SDS011;3852;52.284;8.032;2022-08-23T01:46:51;3.20;;;2.90;;
7621;SDS011;3852;52.284;8.032;2022-08-23T01:49:18;3.57;;;3.27;;
7621;SDS011;3852;52.284;8.032;2022-08-23T01:51:44;3.60;;;3.30;;
7621;SDS011;3852;52.284;8.032;2022-08-23T01:54:10;3.57;;;3.27;;
7621;SDS011;3852;52.284;8.032;2022-08-23T01:56:37;3.70;;;3.37;;
7621;SDS011;3852;52.284;8.032;2022-08-23T01:59:04;3.67;;;3.37;;
7621;SDS011;3852;52.284;8.032;2022-08-23T02:01:32;4.30;;;3.20;;
7621;SDS011;3852;52.284;8.032;2022-08-23T02:03:58;3.40;;;3.10;;
7621;SDS011;3852;52.284;8.032;2022-08-23T02:06:25;4.20;;;3.30;;
7621;SDS011;3852;52.284;8.032;2022-08-23T02:08:51;3.33;;;3.07;;
7621;SDS011;3852;52.284;8.032;2022-08-23T02:11:27;3.50;;;3.20;;
7621;SDS011;3852;52.284;8.032;2022-08-23T02:14:02;4.20;;;3.40;;
7621;SDS011;3852;52.284;8.032;2022-08-23T02:16:34;3.53;;;3.30;;
7621;SDS011;3852;52.284;8.032;2022-08-23T02:19:05;3.53;;;2.90;;
7621;SDS011;3852;52.284;8.032;2022-08-23T02:21:34;3.07;;;2.87;;
7621;SDS011;3852;52.284;8.032;2022-08-23T02:24:03;3.40;;;3.10;;
7621;SDS011;3852;52.284;8.032;2022-08-23T02:26:40;3.40;;;3.10;;
7621;SDS011;3852;52.284;8.032;2022-08-23T02:29:10;3.80;;;3.17;;
7621;SDS011;3852;52.284;8.032;2022-08-23T02:31:38;4.60;;;2.93;;
7621;SDS011;3852;52.284;8.032;2022-08-23T02:34:04;5.23;;;3.30;;
7621;SDS011;3852;52.284;8.032;2022-08-23T02:36:31;3.97;;;3.13;;
7621;SDS011;3852;52.284;8.032;2022-08-23T02:38:58;3.23;;;2.83;;
7621;SDS011;3852;52.284;8.032;2022-08-23T02:41:24;4.03;;;2.60;;
7621;SDS011;3852;52.284;8.032;2022-08-23T02:43:52;4.43;;;3.10;;
7621;SDS011;3852;52.284;8.032;2022-08-23T02:46:19;3.00;;;2.80;;
7621;SDS011;3852;52.284;8.032;2022-08-23T02:48:46;3.40;;;3.10;;
7621;SDS011;3852;52.284;8.032;2022-08-23T02:51:12;3.30;;;3.00;;
7621;SDS011;3852;52.284;8.032;2022-08-23T02:53:38;3.10;;;2.80;;
7621;SDS011;3852;52.284;8.032;2022-08-23T02:56:04;4.47;;;3.40;;
7621;SDS011;3852;52.284;8.032;2022-08-23T02:58:30;4.77;;;3.40;;
7621;SDS011;3852;52.284;8.032;2022-08-23T03:00:56;3.90;;;3.53;;
7621;SDS011;3852;52.284;8.032;2022-08-23T03:03:22;3.10;;;2.90;;
7621;SDS011;3852;52.284;8.032;2022-08-23T03:05:48;3.40;;;3.10;;
7621;SDS011;3852;52.284;8.032;2022-08-23T03:08:15;3.40;;;3.20;;
7621;SDS011;3852;52.284;8.032;2022-08-23T03:10:43;4.03;;;3.40;;
7621;SDS011;3852;52.284;8.032;2022-08-23T03:13:12;4.60;;;3.67;;
7621;SDS011;3852;52.284;8.032;2022-08-23T03:15:39;4.00;;;3.60;;
7621;SDS011;3852;52.284;8.032;2022-08-23T03:18:06;4.63;;;3.60;;
7621;SDS011;3852;52.284;8.032;2022-08-23T03:20:32;3.53;;;3.33;;
7621;SDS011;3852;52.284;8.032;2022-08-23T03:22:59;3.47;;;3.23;;
7621;SDS011;3852;52.284;8.032;2022-08-23T03:25:25;3.60;;;3.30;;
7621;SDS011;3852;52.284;8.032;2022-08-23T03:27:52;3.70;;;3.40;;
7621;SDS011;3852;52.284;8.032;2022-08-23T03:30:18;3.87;;;3.57;;
7621;SDS011;3852;52.284;8.032;2022-08-23T03:32:44;4.00;;;3.50;;
7621;SDS011;3852;52.284;8.032;2022-08-23T03:35:11;4.00;;;3.70;;
7621;SDS011;3852;52.284;8.032;2022-08-23T03:37:38;4.73;;;3.90;;
7621;SDS011;3852;52.284;8.032;2022-08-23T03:40:04;4.10;;;3.80;;
7621;SDS011;3852;52.284;8.032;2022-08-23T03:42:31;4.30;;;3.90;;
7621;SDS011;3852;52.284;8.032;2022-08-23T03:44:57;4.07;;;3.77;;
7621;SDS011;3852;52.284;8.032;2022-08-23T03:47:23;3.70;;;3.40;;
7621;SDS011;3852;52.284;8.032;2022-08-23T03:49:49;4.10;;;3.70;;
7621;SDS011;3852;52.284;8.032;2022-08-23T03:52:15;4.73;;;3.90;;
7621;SDS011;3852;52.284;8.032;2022-08-23T03:54:41;4.13;;;3.77;;
7621;SDS011;3852;52.284;8.032;2022-08-23T03:57:07;4.87;;;4.07;;
7621;SDS011;3852;52.284;8.032;2022-08-23T03:59:34;3.70;;;3.40;;
7621;SDS011;3852;52.284;8.032;2022-08-23T04:02:02;4.13;;;3.80;;
7621;SDS011;3852;52.284;8.032;2022-08-23T04:04:29;4.47;;;4.07;;
7621;SDS011;3852;52.284;8.032;2022-08-23T04:06:54;4.13;;;3.83;;
7621;SDS011;3852;52.284;8.032;2022-08-23T04:09:21;4.83;;;4.37;;
7621;SDS011;3852;52.284;8.032;2022-08-23T04:11:47;4.30;;;4.00;;
7621;SDS011;3852;52.284;8.032;2022-08-23T04:14:13;4.23;;;3.83;;
7621;SDS011;3852;52.284;8.032;2022-08-23T04:16:39;4.27;;;3.90;;
7621;SDS011;3852;52.284;8.032;2022-08-23T04:19:10;4.30;;;3.90;;
7621;SDS011;3852;52.284;8.032;2022-08-23T04:21:38;4.43;;;4.07;;
7621;SDS011;3852;52.284;8.032;2022-08-23T04:24:08;4.77;;;4.40;;
7621;SDS011;3852;52.284;8.032;2022-08-23T04:26:34;5.07;;;4.57;;
7621;SDS011;3852;52.284;8.032;2022-08-23T04:29:00;4.97;;;4.17;;
7621;SDS011;3852;52.284;8.032;2022-08-23T04:31:26;4.53;;;4.23;;
7621;SDS011;3852;52.284;8.032;2022-08-23T04:33:53;4.77;;;4.40;;
7621;SDS011;3852;52.284;8.032;2022-08-23T04:36:20;4.77;;;4.40;;
7621;SDS011;3852;52.284;8.032;2022-08-23T04:38:47;5.07;;;4.67;;
7621;SDS011;3852;52.284;8.032;2022-08-23T04:41:13;4.87;;;4.43;;
7621;SDS011;3852;52.284;8.032;2022-08-23T04:43:58;4.73;;;4.33;;
7621;SDS011;3852;52.284;8.032;2022-08-23T04:46:24;4.37;;;4.00;;
7621;SDS011;3852;52.284;8.032;2022-08-23T04:48:50;5.17;;;4.43;;
7621;SDS011;3852;52.284;8.032;2022-08-23T04:51:18;4.73;;;4.43;;
7621;SDS011;3852;52.284;8.032;2022-08-23T04:53:44;5.27;;;4.37;;
7621;SDS011;3852;52.284;8.032;2022-08-23T04:56:10;4.97;;;4.57;;
7621;SDS011;3852;52.284;8.032;2022-08-23T04:58:36;5.43;;;4.30;;
7621;SDS011;3852;52.284;8.032;2022-08-23T05:01:03;4.33;;;4.03;;
7621;SDS011;3852;52.284;8.032;2022-08-23T05:03:32;4.53;;;4.23;;
7621;SDS011;3852;52.284;8.032;2022-08-23T05:05:59;5.57;;;4.77;;
7621;SDS011;3852;52.284;8.032;2022-08-23T05:08:25;5.83;;;5.27;;
7621;SDS011;3852;52.284;8.032;2022-08-23T05:10:51;5.27;;;4.87;;
7621;SDS011;3852;52.284;8.032;2022-08-23T05:13:17;5.40;;;4.90;;
7621;SDS011;3852;52.284;8.032;2022-08-23T05:15:43;5.13;;;4.63;;
7621;SDS011;3852;52.284;8.032;2022-08-23T05:18:10;4.90;;;4.43;;
7621;SDS011;3852;52.284;8.032;2022-08-23T05:20:36;5.20;;;4.70;;
7621;SDS011;3852;52.284;8.032;2022-08-23T05:23:03;5.67;;;5.10;;
7621;SDS011;3852;52.284;8.032;2022-08-23T05:25:29;4.80;;;4.40;;
7621;SDS011;3852;52.284;8.032;2022-08-23T05:28:14;5.27;;;4.73;;
7621;SDS011;3852;52.284;8.032;2022-08-23T05:30:53;4.70;;;4.00;;
7621;SDS011;3852;52.284;8.032;2022-08-23T05:33:24;5.20;;;3.93;;
7621;SDS011;3852;52.284;8.032;2022-08-23T05:35:53;6.13;;;4.50;;
7621;SDS011;3852;52.284;8.032;2022-08-23T05:38:20;4.73;;;4.00;;
7621;SDS011;3852;52.284;8.032;2022-08-23T05:40:50;5.00;;;4.50;;
7621;SDS011;3852;52.284;8.032;2022-08-23T05:43:21;4.43;;;4.03;;
7621;SDS011;3852;52.284;8.032;2022-08-23T05:45:51;4.37;;;4.00;;
7621;SDS011;3852;52.284;8.032;2022-08-23T05:48:24;5.17;;;4.53;;
7621;SDS011;3852;52.284;8.032;2022-08-23T05:50:50;5.37;;;3.63;;
7621;SDS011;3852;52.284;8.032;2022-08-23T05:53:16;4.40;;;3.43;;
7621;SDS011;3852;52.284;8.032;2022-08-23T05:55:41;4.00;;;3.60;;
7621;SDS011;3852;52.284;8.032;2022-08-23T05:58:07;4.13;;;3.63;;
7621;SDS011;3852;52.284;8.032;2022-08-23T06:00:33;5.07;;;3.83;;
7621;SDS011;3852;52.284;8.032;2022-08-23T06:02:59;5.27;;;3.70;;
7621;SDS011;3852;52.284;8.032;2022-08-23T06:05:25;3.93;;;3.37;;
7621;SDS011;3852;52.284;8.032;2022-08-23T06:07:51;3.93;;;3.53;;
7621;SDS011;3852;52.284;8.032;2022-08-23T06:10:18;4.63;;;3.37;;
7621;SDS011;3852;52.284;8.032;2022-08-23T06:12:45;3.70;;;3.40;;
7621;SDS011;3852;52.284;8.032;2022-08-23T06:15:12;4.13;;;3.70;;
7621;SDS011;3852;52.284;8.032;2022-08-23T06:17:38;5.30;;;3.43;;
7621;SDS011;3852;52.284;8.032;2022-08-23T06:20:05;3.73;;;3.43;;
7621;SDS011;3852;52.284;8.032;2022-08-23T06:22:32;3.80;;;3.40;;
7621;SDS011;3852;52.284;8.032;2022-08-23T06:24:58;4.03;;;3.63;;
7621;SDS011;3852;52.284;8.032;2022-08-23T06:27:24;4.80;;;3.40;;
7621;SDS011;3852;52.284;8.032;2022-08-23T06:29:50;3.77;;;3.00;;
7621;SDS011;3852;52.284;8.032;2022-08-23T06:32:15;3.60;;;3.10;;
7621;SDS011;3852;52.284;8.032;2022-08-23T06:34:41;3.37;;;3.07;;
7621;SDS011;3852;52.284;8.032;2022-08-23T06:37:11;3.87;;;3.10;;
7621;SDS011;3852;52.284;8.032;2022-08-23T06:39:38;3.23;;;2.97;;
7621;SDS011;3852;52.284;8.032;2022-08-23T06:42:06;3.63;;;3.30;;
7621;SDS011;3852;52.284;8.032;2022-08-23T06:44:39;4.03;;;3.10;;
7621;SDS011;3852;52.284;8.032;2022-08-23T06:47:06;3.43;;;3.13;;
7621;SDS011;3852;52.284;8.032;2022-08-23T06:49:33;3.80;;;3.03;;
7621;SDS011;3852;52.284;8.032;2022-08-23T06:52:00;3.70;;;3.20;;
7621;SDS011;3852;52.284;8.032;2022-08-23T06:54:30;5.43;;;2.77;;
7621;SDS011;3852;52.284;8.032;2022-08-23T06:56:59;3.87;;;2.87;;
7621;SDS011;3852;52.284;8.032;2022-08-23T06:59:26;5.37;;;3.07;;
7621;SDS011;3852;52.284;8.032;2022-08-23T07:02:02;4.50;;;3.00;;
7621;SDS011;3852;52.284;8.032;2022-08-23T07:04:32;3.37;;;2.83;;
7621;SDS011;3852;52.284;8.032;2022-08-23T07:07:02;3.30;;;2.90;;
7621;SDS011;3852;52.284;8.032;2022-08-23T07:09:30;4.00;;;2.90;;
7621;SDS011;3852;52.284;8.032;2022-08-23T07:11:57;6.13;;;3.40;;
7621;SDS011;3852;52.284;8.032;2022-08-23T07:14:24;4.47;;;3.40;;
7621;SDS011;3852;52.284;8.032;2022-08-23T07:16:52;5.07;;;2.93;;
7621;SDS011;3852;52.284;8.032;2022-08-23T07:19:22;4.00;;;2.63;;
7621;SDS011;3852;52.284;8.032;2022-08-23T07:21:51;3.83;;;2.97;;
7621;SDS011;3852;52.284;8.032;2022-08-23T07:24:18;3.03;;;2.47;;
7621;SDS011;3852;52.284;8.032;2022-08-23T07:26:45;2.83;;;2.27;;
7621;SDS011;3852;52.284;8.032;2022-08-23T07:29:13;3.90;;;2.77;;
7621;SDS011;3852;52.284;8.032;2022-08-23T07:31:43;3.37;;;2.50;;
7621;SDS011;3852;52.284;8.032;2022-08-23T07:34:12;2.90;;;2.57;;
7621;SDS011;3852;52.284;8.032;2022-08-23T07:36:39;4.70;;;2.43;;
7621;SDS011;3852;52.284;8.032;2022-08-23T07:39:08;4.17;;;2.67;;
7621;SDS011;3852;52.284;8.032;2022-08-23T07:41:35;5.60;;;2.83;;
7621;SDS011;3852;52.284;8.032;2022-08-23T07:44:03;3.00;;;2.47;;
7621;SDS011;3852;52.284;8.032;2022-08-23T07:46:32;3.37;;;2.60;;
7621;SDS011;3852;52.284;8.032;2022-08-23T07:49:03;12.20;;;3.37;;
7621;SDS011;3852;52.284;8.032;2022-08-23T07:51:31;4.30;;;2.60;;
7621;SDS011;3852;52.284;8.032;2022-08-23T07:54:00;2.97;;;2.50;;
7621;SDS011;3852;52.284;8.032;2022-08-23T07:56:31;2.80;;;2.60;;
7621;SDS011;3852;52.284;8.032;2022-08-23T07:58:58;6.47;;;3.00;;
7621;SDS011;3852;52.284;8.032;2022-08-23T08:01:26;2.57;;;2.37;;
7621;SDS011;3852;52.284;8.032;2022-08-23T08:03:54;3.23;;;2.43;;
7621;SDS011;3852;52.284;8.032;2022-08-23T08:06:24;2.77;;;2.20;;
7621;SDS011;3852;52.284;8.032;2022-08-23T08:08:54;2.73;;;2.50;;
7621;SDS011;3852;52.284;8.032;2022-08-23T08:11:22;6.97;;;3.00;;
7621;SDS011;3852;52.284;8.032;2022-08-23T08:13:51;5.57;;;2.83;;
7621;SDS011;3852;52.284;8.032;2022-08-23T08:16:26;5.03;;;2.20;;
7621;SDS011;3852;52.284;8.032;2022-08-23T08:18:56;4.73;;;2.63;;
7621;SDS011;3852;52.284;8.032;2022-08-23T08:21:24;2.60;;;2.13;;
7621;SDS011;3852;52.284;8.032;2022-08-23T08:23:51;2.50;;;2.30;;
7621;SDS011;3852;52.284;8.032;2022-08-23T08:26:18;4.77;;;2.30;;
7621;SDS011;3852;52.284;8.032;2022-08-23T08:28:45;4.80;;;2.50;;
7621;SDS011;3852;52.284;8.032;2022-08-23T08:31:11;5.63;;;2.77;;
7621;SDS011;3852;52.284;8.032;2022-08-23T08:33:37;3.47;;;2.43;;
7621;SDS011;3852;52.284;8.032;2022-08-23T08:36:03;9.90;;;3.60;;
7621;SDS011;3852;52.284;8.032;2022-08-23T08:38:31;17.03;;;4.37;;
7621;SDS011;3852;52.284;8.032;2022-08-23T08:41:00;9.17;;;3.37;;
7621;SDS011;3852;52.284;8.032;2022-08-23T08:49:15;5.67;;;2.57;;
7621;SDS011;3852;52.284;8.032;2022-08-23T08:52:09;4.43;;;2.80;;
7621;SDS011;3852;52.284;8.032;2022-08-23T08:54:59;4.23;;;2.43;;
7621;SDS011;3852;52.284;8.032;2022-08-23T08:57:38;3.43;;;2.47;;
7621;SDS011;3852;52.284;8.032;2022-08-23T09:02:39;3.53;;;2.67;;
7621;SDS011;3852;52.284;8.032;2022-08-23T09:05:17;7.23;;;3.40;;
7621;SDS011;3852;52.284;8.032;2022-08-23T09:14:08;3.43;;;3.10;;
7621;SDS011;3852;52.284;8.032;2022-08-23T09:20:09;4.77;;;3.17;;
7621;SDS011;3852;52.284;8.032;2022-08-23T09:22:40;4.00;;;2.83;;
7621;SDS011;3852;52.284;8.032;2022-08-23T09:25:10;3.97;;;2.93;;
7621;SDS011;3852;52.284;8.032;2022-08-23T09:27:38;4.67;;;2.90;;
7621;SDS011;3852;52.284;8.032;2022-08-23T09:30:07;2.90;;;2.70;;
7621;SDS011;3852;52.284;8.032;2022-08-23T09:32:36;4.93;;;2.97;;
7621;SDS011;3852;52.284;8.032;2022-08-23T09:35:15;5.83;;;3.07;;
7621;SDS011;3852;52.284;8.032;2022-08-23T09:40:32;3.00;;;2.53;;
7621;SDS011;3852;52.284;8.032;2022-08-23T09:43:12;3.33;;;3.00;;
7621;SDS011;3852;52.284;8.032;2022-08-23T09:51:17;3.37;;;2.90;;
7621;SDS011;3852;52.284;8.032;2022-08-23T09:57:03;3.97;;;2.80;;
7621;SDS011;3852;52.284;8.032;2022-08-23T09:59:36;3.07;;;2.80;;
7621;SDS011;3852;52.284;8.032;2022-08-23T10:02:15;3.67;;;2.57;;
7621;SDS011;3852;52.284;8.032;2022-08-23T10:07:43;5.97;;;2.93;;
7621;SDS011;3852;52.284;8.032;2022-08-23T10:13:16;4.63;;;2.90;;
7621;SDS011;3852;52.284;8.032;2022-08-23T10:18:50;4.17;;;2.97;;
7621;SDS011;3852;52.284;8.032;2022-08-23T10:30:14;2.67;;;2.47;;
7621;SDS011;3852;52.284;8.032;2022-08-23T10:41:07;4.13;;;2.80;;
7621;SDS011;3852;52.284;8.032;2022-08-23T10:47:01;4.50;;;2.80;;
7621;SDS011;3852;52.284;8.032;2022-08-23T10:49:45;3.63;;;2.87;;
7621;SDS011;3852;52.284;8.032;2022-08-23T10:52:17;3.20;;;2.90;;
7621;SDS011;3852;52.284;8.032;2022-08-23T10:54:57;3.43;;;2.57;;
7621;SDS011;3852;52.284;8.032;2022-08-23T10:57:41;5.03;;;3.30;;
7621;SDS011;3852;52.284;8.032;2022-08-23T11:00:12;4.03;;;3.20;;
7621;SDS011;3852;52.284;8.032;2022-08-23T11:03:07;3.37;;;3.00;;
7621;SDS011;3852;52.284;8.032;2022-08-23T11:08:56;3.70;;;3.07;;
7621;SDS011;3852;52.284;8.032;2022-08-23T11:11:43;4.10;;;2.80;;
7621;SDS011;3852;52.284;8.032;2022-08-23T11:14:36;7.40;;;3.43;;
7621;SDS011;3852;52.284;8.032;2022-08-23T11:17:06;4.33;;;2.87;;
7621;SDS011;3852;52.284;8.032;2022-08-23T11:22:23;4.07;;;2.90;;
7621;SDS011;3852;52.284;8.032;2022-08-23T11:27:51;3.10;;;2.70;;
7621;SDS011;3852;52.284;8.032;2022-08-23T11:30:48;4.30;;;2.80;;
7621;SDS011;3852;52.284;8.032;2022-08-23T11:33:22;5.20;;;3.17;;
7621;SDS011;3852;52.284;8.032;2022-08-23T11:39:16;3.47;;;3.17;;
7621;SDS011;3852;52.284;8.032;2022-08-23T11:41:35;3.23;;;2.87;;
7621;SDS011;3852;52.284;8.032;2022-08-23T11:47:12;4.27;;;3.20;;
7621;SDS011;3852;52.284;8.032;2022-08-23T11:52:27;6.43;;;3.30;;
7621;SDS011;3852;52.284;8.032;2022-08-23T11:55:22;3.57;;;2.83;;
7621;SDS011;3852;52.284;8.032;2022-08-23T11:58:25;3.13;;;2.83;;
7621;SDS011;3852;52.284;8.032;2022-08-23T12:01:16;3.30;;;3.00;;
7621;SDS011;3852;52.284;8.032;2022-08-23T12:04:02;3.93;;;3.20;;
7621;SDS011;3852;52.284;8.032;2022-08-23T12:06:43;4.43;;;3.07;;
7621;SDS011;3852;52.284;8.032;2022-08-23T12:19:51;3.30;;;2.97;;
7621;SDS011;3852;52.284;8.032;2022-08-23T12:25:36;4.43;;;2.90;;
7621;SDS011;3852;52.284;8.032;2022-08-23T12:31:20;3.70;;;2.80;;
7621;SDS011;3852;52.284;8.032;2022-08-23T12:36:26;3.00;;;2.80;;
7621;SDS011;3852;52.284;8.032;2022-08-23T12:39:06;4.30;;;3.10;;
7621;SDS011;3852;52.284;8.032;2022-08-23T12:44:21;4.30;;;2.80;;
7621;SDS011;3852;52.284;8.032;2022-08-23T12:46:50;4.03;;;2.97;;
7621;SDS011;3852;52.284;8.032;2022-08-23T12:49:27;3.57;;;3.27;;
7621;SDS011;3852;52.284;8.032;2022-08-23T12:52:00;3.27;;;2.90;;
7621;SDS011;3852;52.284;8.032;2022-08-23T12:54:38;7.00;;;2.90;;
7621;SDS011;3852;52.284;8.032;2022-08-23T12:57:24;4.13;;;3.00;;
7621;SDS011;3852;52.284;8.032;2022-08-23T13:03:11;8.87;;;3.00;;
7621;SDS011;3852;52.284;8.032;2022-08-23T13:05:55;5.73;;;2.60;;
7621;SDS011;3852;52.284;8.032;2022-08-23T13:11:37;2.93;;;2.63;;
7621;SDS011;3852;52.284;8.032;2022-08-23T13:17:11;3.80;;;3.00;;
7621;SDS011;3852;52.284;8.032;2022-08-23T13:20:31;3.07;;;2.63;;
7621;SDS011;3852;52.284;8.032;2022-08-23T13:25:51;5.30;;;3.57;;
7621;SDS011;3852;52.284;8.032;2022-08-23T13:28:24;6.00;;;3.10;;
7621;SDS011;3852;52.284;8.032;2022-08-23T13:31:01;4.27;;;3.87;;
7621;SDS011;3852;52.284;8.032;2022-08-23T13:33:32;5.47;;;3.20;;
7621;SDS011;3852;52.284;8.032;2022-08-23T13:38:55;3.57;;;2.93;;
7621;SDS011;3852;52.284;8.032;2022-08-23T13:41:31;5.00;;;3.20;;
7621;SDS011;3852;52.284;8.032;2022-08-23T13:44:03;3.53;;;3.20;;
7621;SDS011;3852;52.284;8.032;2022-08-23T13:46:31;4.43;;;2.67;;
7621;SDS011;3852;52.284;8.032;2022-08-23T13:51:40;2.27;;;2.07;;
7621;SDS011;3852;52.284;8.032;2022-08-23T13:54:10;2.40;;;2.30;;
7621;SDS011;3852;52.284;8.032;2022-08-23T13:56:46;3.03;;;2.83;;
7621;SDS011;3852;52.284;8.032;2022-08-23T13:59:23;3.00;;;2.50;;
7621;SDS011;3852;52.284;8.032;2022-08-23T14:02:05;3.07;;;2.27;;
7621;SDS011;3852;52.284;8.032;2022-08-23T14:04:38;3.07;;;2.47;;
7621;SDS011;3852;52.284;8.032;2022-08-23T14:07:05;5.00;;;2.90;;
7621;SDS011;3852;52.284;8.032;2022-08-23T14:09:32;4.60;;;2.90;;
7621;SDS011;3852;52.284;8.032;2022-08-23T14:11:59;3.80;;;2.67;;
7621;SDS011;3852;52.284;8.032;2022-08-23T14:14:32;3.80;;;2.60;;
7621;SDS011;3852;52.284;8.032;2022-08-23T14:17:00;6.53;;;2.90;;
7621;SDS011;3852;52.284;8.032;2022-08-23T14:19:29;3.47;;;2.93;;
7621;SDS011;3852;52.284;8.032;2022-08-23T14:21:58;5.27;;;2.67;;
7621;SDS011;3852;52.284;8.032;2022-08-23T14:24:25;5.70;;;3.13;;
7621;SDS011;3852;52.284;8.032;2022-08-23T14:26:52;5.43;;;2.60;;
7621;SDS011;3852;52.284;8.032;2022-08-23T14:29:20;3.43;;;2.90;;
7621;SDS011;3852;52.284;8.032;2022-08-23T14:31:49;5.60;;;2.67;;
7621;SDS011;3852;52.284;8.032;2022-08-23T14:34:16;2.70;;;2.50;;
7621;SDS011;3852;52.284;8.032;2022-08-23T14:36:42;2.40;;;2.30;;
7621;SDS011;3852;52.284;8.032;2022-08-23T14:39:08;4.13;;;2.87;;
7621;SDS011;3852;52.284;8.032;2022-08-23T14:41:34;2.80;;;2.60;;
7621;SDS011;3852;52.284;8.032;2022-08-23T14:44:00;2.77;;;2.57;;
7621;SDS011;3852;52.284;8.032;2022-08-23T14:46:26;2.97;;;2.60;;
7621;SDS011;3852;52.284;8.032;2022-08-23T14:48:52;4.07;;;2.70;;
7621;SDS011;3852;52.284;8.032;2022-08-23T14:53:56;2.80;;;2.60;;
7621;SDS011;3852;52.284;8.032;2022-08-23T14:56:23;3.97;;;2.63;;
7621;SDS011;3852;52.284;8.032;2022-08-23T14:58:50;3.00;;;2.47;;
7621;SDS011;3852;52.284;8.032;2022-08-23T15:01:16;5.37;;;2.50;;
7621;SDS011;3852;52.284;8.032;2022-08-23T15:03:43;2.80;;;2.60;;
7621;SDS011;3852;52.284;8.032;2022-08-23T15:06:10;3.67;;;2.70;;
7621;SDS011;3852;52.284;8.032;2022-08-23T15:08:38;3.50;;;2.80;;
7621;SDS011;3852;52.284;8.032;2022-08-23T15:11:04;3.30;;;2.50;;
7621;SDS011;3852;52.284;8.032;2022-08-23T15:13:33;3.80;;;2.60;;
7621;SDS011;3852;52.284;8.032;2022-08-23T15:16:03;4.20;;;2.40;;
7621;SDS011;3852;52.284;8.032;2022-08-23T15:18:31;4.33;;;2.53;;
7621;SDS011;3852;52.284;8.032;2022-08-23T15:20:58;4.07;;;2.57;;
7621;SDS011;3852;52.284;8.032;2022-08-23T15:23:24;3.27;;;2.60;;
7621;SDS011;3852;52.284;8.032;2022-08-23T15:25:51;4.67;;;2.97;;
7621;SDS011;3852;52.284;8.032;2022-08-23T15:28:18;6.13;;;2.33;;
7621;SDS011;3852;52.284;8.032;2022-08-23T15:30:47;6.53;;;3.00;;
7621;SDS011;3852;52.284;8.032;2022-08-23T15:33:14;4.93;;;2.93;;
7621;SDS011;3852;52.284;8.032;2022-08-23T15:35:42;3.93;;;2.70;;
7621;SDS011;3852;52.284;8.032;2022-08-23T15:38:10;3.07;;;2.60;;
7621;SDS011;3852;52.284;8.032;2022-08-23T15:40:39;3.30;;;2.70;;
7621;SDS011;3852;52.284;8.032;2022-08-23T15:43:05;3.03;;;2.47;;
7621;SDS011;3852;52.284;8.032;2022-08-23T15:45:32;3.13;;;2.53;;
7621;SDS011;3852;52.284;8.032;2022-08-23T15:48:01;3.13;;;2.50;;
7621;SDS011;3852;52.284;8.032;2022-08-23T15:50:36;3.63;;;2.67;;
7621;SDS011;3852;52.284;8.032;2022-08-23T15:53:02;2.93;;;2.60;;
7621;SDS011;3852;52.284;8.032;2022-08-23T15:55:31;3.13;;;2.83;;
7621;SDS011;3852;52.284;8.032;2022-08-23T15:57:57;2.30;;;2.20;;
7621;SDS011;3852;52.284;8.032;2022-08-23T16:00:24;3.17;;;2.70;;
7621;SDS011;3852;52.284;8.032;2022-08-23T16:02:51;2.80;;;2.60;;
7621;SDS011;3852;52.284;8.032;2022-08-23T16:05:17;3.60;;;2.60;;
7621;SDS011;3852;52.284;8.032;2022-08-23T16:07:44;4.97;;;2.90;;
7621;SDS011;3852;52.284;8.032;2022-08-23T16:10:10;3.53;;;2.80;;
7621;SDS011;3852;52.284;8.032;2022-08-23T16:12:38;3.20;;;2.70;;
7621;SDS011;3852;52.284;8.032;2022-08-23T16:15:05;3.80;;;3.23;;
7621;SDS011;3852;52.284;8.032;2022-08-23T16:17:31;3.20;;;2.90;;
7621;SDS011;3852;52.284;8.032;2022-08-23T16:20:02;5.67;;;4.00;;
7621;SDS011;3852;52.284;8.032;2022-08-23T16:22:31;8.30;;;6.43;;
7621;SDS011;3852;52.284;8.032;2022-08-23T16:24:57;9.03;;;5.17;;
7621;SDS011;3852;52.284;8.032;2022-08-23T16:27:24;5.27;;;3.60;;
7621;SDS011;3852;52.284;8.032;2022-08-23T16:29:51;4.00;;;3.10;;
7621;SDS011;3852;52.284;8.032;2022-08-23T16:32:19;4.87;;;3.47;;
7621;SDS011;3852;52.284;8.032;2022-08-23T16:34:48;5.30;;;3.43;;
7621;SDS011;3852;52.284;8.032;2022-08-23T16:37:14;5.77;;;3.33;;
7621;SDS011;3852;52.284;8.032;2022-08-23T16:39:39;5.70;;;3.00;;
7621;SDS011;3852;52.284;8.032;2022-08-23T16:42:08;3.30;;;3.00;;
7621;SDS011;3852;52.284;8.032;2022-08-23T16:44:34;3.90;;;2.90;;
7621;SDS011;3852;52.284;8.032;2022-08-23T16:47:01;3.10;;;2.90;;
7621;SDS011;3852;52.284;8.032;2022-08-23T16:49:32;3.20;;;3.00;;
7621;SDS011;3852;52.284;8.032;2022-08-23T16:51:58;3.00;;;2.70;;
7621;SDS011;3852;52.284;8.032;2022-08-23T16:54:25;2.90;;;2.70;;
7621;SDS011;3852;52.284;8.032;2022-08-23T16:56:52;3.93;;;3.23;;
7621;SDS011;3852;52.284;8.032;2022-08-23T16:59:18;4.20;;;3.43;;
7621;SDS011;3852;52.284;8.032;2022-08-23T17:01:49;2.90;;;2.70;;
7621;SDS011;3852;52.284;8.032;2022-08-23T17:04:22;3.00;;;2.70;;
7621;SDS011;3852;52.284;8.032;2022-08-23T17:06:50;3.03;;;2.83;;
7621;SDS011;3852;52.284;8.032;2022-08-23T17:09:21;5.60;;;3.10;;
7621;SDS011;3852;52.284;8.032;2022-08-23T17:11:51;3.20;;;2.90;;
7621;SDS011;3852;52.284;8.032;2022-08-23T17:14:18;3.30;;;2.93;;
7621;SDS011;3852;52.284;8.032;2022-08-23T17:16:45;4.10;;;3.13;;
7621;SDS011;3852;52.284;8.032;2022-08-23T17:19:11;3.77;;;2.97;;
7621;SDS011;3852;52.284;8.032;2022-08-23T17:21:39;4.57;;;2.83;;
7621;SDS011;3852;52.284;8.032;2022-08-23T17:24:06;2.90;;;2.70;;
7621;SDS011;3852;52.284;8.032;2022-08-23T17:26:33;3.00;;;2.70;;
7621;SDS011;3852;52.284;8.032;2022-08-23T17:28:59;2.80;;;2.60;;
7621;SDS011;3852;52.284;8.032;2022-08-23T17:31:27;3.07;;;2.83;;
7621;SDS011;3852;52.284;8.032;2022-08-23T17:33:53;3.93;;;3.00;;
7621;SDS011;3852;52.284;8.032;2022-08-23T17:36:20;3.33;;;3.13;;
7621;SDS011;3852;52.284;8.032;2022-08-23T17:38:58;3.30;;;2.87;;